sensor_id;sensor_type;location;lat;lon;timestamp;pressure;altitude;pressure_sealevel;temperature
73673;BMP280;61972;19.480;-99.240;2024-01-15T00:01:06;77439.00;;;21.75
73673;BMP280;61972;19.480;-99.240;2024-01-15T00:03:32;77446.44;;;21.84
73673;BMP280;61972;19.480;-99.240;2024-01-15T00:05:59;77445.34;;;21.91
73673;BMP280;61972;19.480;-99.240;2024-01-15T00:08:26;77445.72;;;21.96
73673;BMP280;61972;19.480;-99.240;2024-01-15T00:10:52;77448.28;;;22.03
73673;BMP280;61972;19.480;-99.240;2024-01-15T00:13:18;77445.72;;;22.10
73673;BMP280;61972;19.480;-99.240;2024-01-15T00:15:44;77446.25;;;22.18
73673;BMP280;61972;19.480;-99.240;2024-01-15T00:18:10;77455.53;;;22.24
73673;BMP280;61972;19.480;-99.240;2024-01-15T00:20:36;77457.59;;;22.31
73673;BMP280;61972;19.480;-99.240;2024-01-15T00:23:03;77456.84;;;22.35
73673;BMP280;61972;19.480;-99.240;2024-01-15T00:25:29;77458.31;;;22.41
73673;BMP280;61972;19.480;-99.240;2024-01-15T00:27:55;77458.69;;;22.46
73673;BMP280;61972;19.480;-99.240;2024-01-15T00:30:21;77469.09;;;22.53
73673;BMP280;61972;19.480;-99.240;2024-01-15T00:32:47;77464.25;;;22.59
73673;BMP280;61972;19.480;-99.240;2024-01-15T00:35:13;77479.84;;;22.66
73673;BMP280;61972;19.480;-99.240;2024-01-15T00:38:22;77472.03;;;22.73
73673;BMP280;61972;19.480;-99.240;2024-01-15T00:40:48;77481.09;;;22.84
73673;BMP280;61972;19.480;-99.240;2024-01-15T00:43:14;77478.66;;;22.94
73673;BMP280;61972;19.480;-99.240;2024-01-15T00:45:40;77482.91;;;23.02
73673;BMP280;61972;19.480;-99.240;2024-01-15T00:48:07;77480.81;;;23.17
73673;BMP280;61972;19.480;-99.240;2024-01-15T00:50:33;77481.34;;;23.32
73673;BMP280;61972;19.480;-99.240;2024-01-15T00:52:59;77490.38;;;23.50
73673;BMP280;61972;19.480;-99.240;2024-01-15T00:55:27;77496.09;;;23.65
73673;BMP280;61972;19.480;-99.240;2024-01-15T00:57:54;77496.41;;;23.77
73673;BMP280;61972;19.480;-99.240;2024-01-15T01:00:20;77496.53;;;23.87
73673;BMP280;61972;19.480;-99.240;2024-01-15T01:02:56;77499.66;;;23.95
73673;BMP280;61972;19.480;-99.240;2024-01-15T01:05:22;77505.22;;;24.00
73673;BMP280;61972;19.480;-99.240;2024-01-15T01:07:48;77505.38;;;24.03
73673;BMP280;61972;19.480;-99.240;2024-01-15T01:10:14;77512.81;;;24.05
73673;BMP280;61972;19.480;-99.240;2024-01-15T01:12:40;77513.94;;;24.06
73673;BMP280;61972;19.480;-99.240;2024-01-15T01:15:07;77513.94;;;24.06
73673;BMP280;61972;19.480;-99.240;2024-01-15T01:17:33;77515.44;;;24.05
73673;BMP280;61972;19.480;-99.240;2024-01-15T01:19:59;77512.25;;;24.04
73673;BMP280;61972;19.480;-99.240;2024-01-15T01:22:25;77524.22;;;24.03
73673;BMP280;61972;19.480;-99.240;2024-01-15T01:24:52;77523.66;;;24.03
73673;BMP280;61972;19.480;-99.240;2024-01-15T01:27:18;77531.31;;;24.00
73673;BMP280;61972;19.480;-99.240;2024-01-15T01:29:44;77532.63;;;23.96
73673;BMP280;61972;19.480;-99.240;2024-01-15T01:32:10;77537.13;;;23.93
73673;BMP280;61972;19.480;-99.240;2024-01-15T01:34:42;77542.72;;;23.91
73673;BMP280;61972;19.480;-99.240;2024-01-15T01:37:12;77552.03;;;23.90
73673;BMP280;61972;19.480;-99.240;2024-01-15T01:39:45;77549.81;;;23.88
73673;BMP280;61972;19.480;-99.240;2024-01-15T01:42:14;77548.69;;;23.87
73673;BMP280;61972;19.480;-99.240;2024-01-15T01:44:42;77549.81;;;23.88
73673;BMP280;61972;19.480;-99.240;2024-01-15T01:47:12;77555.59;;;23.89
73673;BMP280;61972;19.480;-99.240;2024-01-15T01:49:38;77553.16;;;23.91
73673;BMP280;61972;19.480;-99.240;2024-01-15T01:52:05;77556.91;;;23.92
73673;BMP280;61972;19.480;-99.240;2024-01-15T01:54:35;77561.72;;;23.94
73673;BMP280;61972;19.480;-99.240;2024-01-15T01:57:04;77556.50;;;23.94
73673;BMP280;61972;19.480;-99.240;2024-01-15T01:59:31;77563.41;;;23.96
73673;BMP280;61972;19.480;-99.240;2024-01-15T02:01:58;77563.41;;;23.96
73673;BMP280;61972;19.480;-99.240;2024-01-15T02:04:26;77563.94;;;23.96
73673;BMP280;61972;19.480;-99.240;2024-01-15T02:07:01;77567.66;;;23.97
73673;BMP280;61972;19.480;-99.240;2024-01-15T02:09:28;77571.97;;;23.99
73673;BMP280;61972;19.480;-99.240;2024-01-15T02:11:54;77582.41;;;23.99
73673;BMP280;61972;19.480;-99.240;2024-01-15T02:14:20;77579.78;;;23.99
73673;BMP280;61972;19.480;-99.240;2024-01-15T02:16:47;77588.53;;;23.97
73673;BMP280;61972;19.480;-99.240;2024-01-15T02:19:17;77588.91;;;23.95
73673;BMP280;61972;19.480;-99.240;2024-01-15T02:21:44;77591.53;;;23.95
73673;BMP280;61972;19.480;-99.240;2024-01-15T02:24:17;77590.81;;;23.92
73673;BMP280;61972;19.480;-99.240;2024-01-15T02:26:43;77599.00;;;23.90
73673;BMP280;61972;19.480;-99.240;2024-01-15T02:29:10;77600.88;;;23.87
73673;BMP280;61972;19.480;-99.240;2024-01-15T02:31:37;77593.44;;;23.85
73673;BMP280;61972;19.480;-99.240;2024-01-15T02:34:04;77599.03;;;23.83
73673;BMP280;61972;19.480;-99.240;2024-01-15T02:36:30;77604.66;;;23.81
73673;BMP280;61972;19.480;-99.240;2024-01-15T02:38:56;77594.59;;;23.79
73673;BMP280;61972;19.480;-99.240;2024-01-15T02:41:26;77599.81;;;23.79
73673;BMP280;61972;19.480;-99.240;2024-01-15T02:43:52;77594.97;;;23.77
73673;BMP280;61972;19.480;-99.240;2024-01-15T02:46:18;77602.78;;;23.77
73673;BMP280;61972;19.480;-99.240;2024-01-15T02:48:44;77607.28;;;23.74
73673;BMP280;61972;19.480;-99.240;2024-01-15T02:51:10;77605.03;;;23.72
73673;BMP280;61972;19.480;-99.240;2024-01-15T02:53:37;77605.97;;;23.70
73673;BMP280;61972;19.480;-99.240;2024-01-15T02:56:10;77605.81;;;23.68
73673;BMP280;61972;19.480;-99.240;2024-01-15T02:58:36;77603.75;;;23.68
73673;BMP280;61972;19.480;-99.240;2024-01-15T03:01:02;77608.41;;;23.68
73673;BMP280;61972;19.480;-99.240;2024-01-15T03:03:29;77603.19;;;23.68
73673;BMP280;61972;19.480;-99.240;2024-01-15T03:05:55;77606.34;;;23.68
73673;BMP280;61972;19.480;-99.240;2024-01-15T03:08:24;77608.03;;;23.70
73673;BMP280;61972;19.480;-99.240;2024-01-15T03:10:50;77613.25;;;23.70
73673;BMP280;61972;19.480;-99.240;2024-01-15T03:13:19;77615.47;;;23.72
73673;BMP280;61972;19.480;-99.240;2024-01-15T03:15:48;77622.94;;;23.74
73673;BMP280;61972;19.480;-99.240;2024-01-15T03:18:20;77620.47;;;23.76
73673;BMP280;61972;19.480;-99.240;2024-01-15T03:20:46;77624.41;;;23.80
73673;BMP280;61972;19.480;-99.240;2024-01-15T03:23:12;77623.63;;;23.84
73673;BMP280;61972;19.480;-99.240;2024-01-15T03:25:38;77622.31;;;23.88
73673;BMP280;61972;19.480;-99.240;2024-01-15T03:28:05;77627.34;;;23.92
73673;BMP280;61972;19.480;-99.240;2024-01-15T03:30:34;77630.66;;;23.95
73673;BMP280;61972;19.480;-99.240;2024-01-15T03:33:00;77639.22;;;23.98
73673;BMP280;61972;19.480;-99.240;2024-01-15T03:35:26;77637.91;;;24.02
73673;BMP280;61972;19.480;-99.240;2024-01-15T03:37:54;77634.91;;;24.04
73673;BMP280;61972;19.480;-99.240;2024-01-15T03:40:21;77644.03;;;24.08
73673;BMP280;61972;19.480;-99.240;2024-01-15T03:42:51;77641.44;;;24.08
73673;BMP280;61972;19.480;-99.240;2024-01-15T03:45:17;77647.41;;;24.11
73673;BMP280;61972;19.480;-99.240;2024-01-15T03:47:46;77639.19;;;24.13
73673;BMP280;61972;19.480;-99.240;2024-01-15T03:50:12;77646.47;;;24.12
73673;BMP280;61972;19.480;-99.240;2024-01-15T03:52:38;77646.09;;;24.14
73673;BMP280;61972;19.480;-99.240;2024-01-15T03:55:08;77644.00;;;24.15
73673;BMP280;61972;19.480;-99.240;2024-01-15T03:57:34;77651.84;;;24.15
73673;BMP280;61972;19.480;-99.240;2024-01-15T04:00:00;77648.88;;;24.17
73673;BMP280;61972;19.480;-99.240;2024-01-15T04:02:26;77653.69;;;24.19
73673;BMP280;61972;19.480;-99.240;2024-01-15T04:04:52;77648.47;;;24.19
73673;BMP280;61972;19.480;-99.240;2024-01-15T04:07:22;77651.09;;;24.19
73673;BMP280;61972;19.480;-99.240;2024-01-15T04:09:50;77641.19;;;24.19
73673;BMP280;61972;19.480;-99.240;2024-01-15T04:12:16;77650.72;;;24.21
73673;BMP280;61972;19.480;-99.240;2024-01-15T04:14:43;77646.59;;;24.22
73673;BMP280;61972;19.480;-99.240;2024-01-15T04:17:09;77658.72;;;24.24
73673;BMP280;61972;19.480;-99.240;2024-01-15T04:19:35;77656.25;;;24.26
73673;BMP280;61972;19.480;-99.240;2024-01-15T04:22:01;77655.91;;;24.28
73673;BMP280;61972;19.480;-99.240;2024-01-15T04:24:28;77656.44;;;24.29
73673;BMP280;61972;19.480;-99.240;2024-01-15T04:26:54;77655.34;;;24.28
73673;BMP280;61972;19.480;-99.240;2024-01-15T04:29:20;77663.56;;;24.26
73673;BMP280;61972;19.480;-99.240;2024-01-15T04:31:47;77670.09;;;24.22
73673;BMP280;61972;19.480;-99.240;2024-01-15T04:34:16;77665.66;;;24.18
73673;BMP280;61972;19.480;-99.240;2024-01-15T04:36:47;77664.16;;;24.12
73673;BMP280;61972;19.480;-99.240;2024-01-15T04:39:16;77667.00;;;24.07
73673;BMP280;61972;19.480;-99.240;2024-01-15T04:41:45;77667.19;;;24.03
73673;BMP280;61972;19.480;-99.240;2024-01-15T04:44:11;77665.31;;;23.98
73673;BMP280;61972;19.480;-99.240;2024-01-15T04:46:38;77665.53;;;23.94
73673;BMP280;61972;19.480;-99.240;2024-01-15T04:49:04;77668.88;;;23.90
73673;BMP280;61972;19.480;-99.240;2024-01-15T04:51:30;77663.50;;;23.87
73673;BMP280;61972;19.480;-99.240;2024-01-15T04:53:57;77672.66;;;23.84
73673;BMP280;61972;19.480;-99.240;2024-01-15T04:56:23;77662.03;;;23.81
73673;BMP280;61972;19.480;-99.240;2024-01-15T04:58:49;77669.88;;;23.81
73673;BMP280;61972;19.480;-99.240;2024-01-15T05:01:16;77662.03;;;23.81
73673;BMP280;61972;19.480;-99.240;2024-01-15T05:03:43;77662.56;;;23.81
73673;BMP280;61972;19.480;-99.240;2024-01-15T05:06:09;77669.47;;;23.83
73673;BMP280;61972;19.480;-99.240;2024-01-15T05:08:35;77669.09;;;23.85
73673;BMP280;61972;19.480;-99.240;2024-01-15T05:11:01;77669.84;;;23.88
73673;BMP280;61972;19.480;-99.240;2024-01-15T05:13:28;77664.41;;;23.93
73673;BMP280;61972;19.480;-99.240;2024-01-15T05:15:54;77672.41;;;23.95
73673;BMP280;61972;19.480;-99.240;2024-01-15T05:18:23;77680.97;;;23.98
73673;BMP280;61972;19.480;-99.240;2024-01-15T05:20:49;77666.44;;;23.99
73673;BMP280;61972;19.480;-99.240;2024-01-15T05:23:15;77667.56;;;24.00
73673;BMP280;61972;19.480;-99.240;2024-01-15T05:25:41;77671.84;;;24.02
73673;BMP280;61972;19.480;-99.240;2024-01-15T05:28:08;77669.78;;;24.03
73673;BMP280;61972;19.480;-99.240;2024-01-15T05:30:34;77665.69;;;24.04
73673;BMP280;61972;19.480;-99.240;2024-01-15T05:33:00;77661.00;;;24.04
73673;BMP280;61972;19.480;-99.240;2024-01-15T05:35:26;77663.63;;;24.04
73673;BMP280;61972;19.480;-99.240;2024-01-15T05:37:53;77665.69;;;24.04
73673;BMP280;61972;19.480;-99.240;2024-01-15T05:40:19;77663.47;;;24.02
73673;BMP280;61972;19.480;-99.240;2024-01-15T05:42:45;77655.47;;;23.99
73673;BMP280;61972;19.480;-99.240;2024-01-15T05:45:14;77653.75;;;23.97
73673;BMP280;61972;19.480;-99.240;2024-01-15T05:47:40;77657.88;;;23.96
73673;BMP280;61972;19.480;-99.240;2024-01-15T05:50:08;77661.97;;;23.95
73673;BMP280;61972;19.480;-99.240;2024-01-15T05:52:34;77656.75;;;23.95
73673;BMP280;61972;19.480;-99.240;2024-01-15T05:55:00;77657.88;;;23.96
73673;BMP280;61972;19.480;-99.240;2024-01-15T05:57:29;77661.59;;;23.97
73673;BMP280;61972;19.480;-99.240;2024-01-15T05:59:56;77650.25;;;23.99
73673;BMP280;61972;19.480;-99.240;2024-01-15T06:02:22;77653.56;;;24.02
73673;BMP280;61972;19.480;-99.240;2024-01-15T06:04:51;77660.47;;;24.04
73673;BMP280;61972;19.480;-99.240;2024-01-15T06:07:17;77656.91;;;24.05
73673;BMP280;61972;19.480;-99.240;2024-01-15T06:09:43;77654.50;;;24.08
73673;BMP280;61972;19.480;-99.240;2024-01-15T06:12:09;77656.72;;;24.10
73673;BMP280;61972;19.480;-99.240;2024-01-15T06:14:36;77659.50;;;24.12
73673;BMP280;61972;19.480;-99.240;2024-01-15T06:17:02;77668.63;;;24.16
73673;BMP280;61972;19.480;-99.240;2024-01-15T06:19:28;77663.03;;;24.18
73673;BMP280;61972;19.480;-99.240;2024-01-15T06:21:57;77658.34;;;24.18
73673;BMP280;61972;19.480;-99.240;2024-01-15T06:24:23;77662.66;;;24.20
73673;BMP280;61972;19.480;-99.240;2024-01-15T06:26:49;77665.41;;;24.23
73673;BMP280;61972;19.480;-99.240;2024-01-15T06:29:16;77667.66;;;24.25
73673;BMP280;61972;19.480;-99.240;2024-01-15T06:31:48;77667.84;;;24.27
73673;BMP280;61972;19.480;-99.240;2024-01-15T06:34:17;77665.22;;;24.27
73673;BMP280;61972;19.480;-99.240;2024-01-15T06:36:43;77666.34;;;24.28
73673;BMP280;61972;19.480;-99.240;2024-01-15T06:39:09;77662.25;;;24.29
73673;BMP280;61972;19.480;-99.240;2024-01-15T06:41:36;77667.47;;;24.29
73673;BMP280;61972;19.480;-99.240;2024-01-15T06:44:11;77668.56;;;24.30
73673;BMP280;61972;19.480;-99.240;2024-01-15T06:46:42;77665.97;;;24.30
73673;BMP280;61972;19.480;-99.240;2024-01-15T06:49:09;77674.91;;;24.31
73673;BMP280;61972;19.480;-99.240;2024-01-15T06:51:35;77670.81;;;24.32
73673;BMP280;61972;19.480;-99.240;2024-01-15T06:54:02;77667.81;;;24.34
73673;BMP280;61972;19.480;-99.240;2024-01-15T06:56:51;77670.03;;;24.36
73673;BMP280;61972;19.480;-99.240;2024-01-15T06:59:17;77666.13;;;24.40
73673;BMP280;61972;19.480;-99.240;2024-01-15T07:01:43;77665.16;;;24.42
73673;BMP280;61972;19.480;-99.240;2024-01-15T07:04:09;77661.41;;;24.41
73673;BMP280;61972;19.480;-99.240;2024-01-15T07:06:38;77657.72;;;24.40
73673;BMP280;61972;19.480;-99.240;2024-01-15T07:09:05;77662.94;;;24.40
73673;BMP280;61972;19.480;-99.240;2024-01-15T07:11:37;77665.00;;;24.39
73673;BMP280;61972;19.480;-99.240;2024-01-15T07:14:04;77660.69;;;24.37
73673;BMP280;61972;19.480;-99.240;2024-01-15T07:16:30;77664.81;;;24.36
73673;BMP280;61972;19.480;-99.240;2024-01-15T07:18:56;77663.69;;;24.35
73673;BMP280;61972;19.480;-99.240;2024-01-15T07:21:22;77662.59;;;24.34
73673;BMP280;61972;19.480;-99.240;2024-01-15T07:23:48;77662.41;;;24.32
73673;BMP280;61972;19.480;-99.240;2024-01-15T07:26:14;77663.91;;;24.31
73673;BMP280;61972;19.480;-99.240;2024-01-15T07:28:40;77663.34;;;24.30
73673;BMP280;61972;19.480;-99.240;2024-01-15T07:31:07;77662.78;;;24.30
73673;BMP280;61972;19.480;-99.240;2024-01-15T07:33:33;77661.13;;;24.28
73673;BMP280;61972;19.480;-99.240;2024-01-15T07:35:59;77662.59;;;24.27
73673;BMP280;61972;19.480;-99.240;2024-01-15T07:38:26;77664.66;;;24.27
73673;BMP280;61972;19.480;-99.240;2024-01-15T07:40:55;77658.88;;;24.26
73673;BMP280;61972;19.480;-99.240;2024-01-15T07:43:21;77661.50;;;24.26
73673;BMP280;61972;19.480;-99.240;2024-01-15T07:45:48;77661.88;;;24.24
73673;BMP280;61972;19.480;-99.240;2024-01-15T07:48:14;77656.09;;;24.24
73673;BMP280;61972;19.480;-99.240;2024-01-15T07:50:43;77649.22;;;24.22
73673;BMP280;61972;19.480;-99.240;2024-01-15T07:53:15;77650.72;;;24.21
73673;BMP280;61972;19.480;-99.240;2024-01-15T07:55:41;77654.81;;;24.20
73673;BMP280;61972;19.480;-99.240;2024-01-15T07:58:07;77648.88;;;24.17
73673;BMP280;61972;19.480;-99.240;2024-01-15T08:00:33;77649.22;;;24.15
73673;BMP280;61972;19.480;-99.240;2024-01-15T08:02:59;77648.50;;;24.12
73673;BMP280;61972;19.480;-99.240;2024-01-15T08:05:29;77644.22;;;24.10
73673;BMP280;61972;19.480;-99.240;2024-01-15T08:07:55;77653.94;;;24.07
73673;BMP280;61972;19.480;-99.240;2024-01-15T08:10:21;77647.97;;;24.04
73673;BMP280;61972;19.480;-99.240;2024-01-15T08:12:47;77646.66;;;24.00
73673;BMP280;61972;19.480;-99.240;2024-01-15T08:15:13;77647.84;;;23.94
73673;BMP280;61972;19.480;-99.240;2024-01-15T08:17:40;77645.25;;;23.87
73673;BMP280;61972;19.480;-99.240;2024-01-15T08:20:09;77637.44;;;23.80
73673;BMP280;61972;19.480;-99.240;2024-01-15T08:22:36;77638.38;;;23.71
73673;BMP280;61972;19.480;-99.240;2024-01-15T08:25:02;77636.75;;;23.62
73673;BMP280;61972;19.480;-99.240;2024-01-15T08:27:32;77627.84;;;23.54
73673;BMP280;61972;19.480;-99.240;2024-01-15T08:29:58;77633.41;;;23.45
73673;BMP280;61972;19.480;-99.240;2024-01-15T08:32:24;77623.41;;;23.36
73673;BMP280;61972;19.480;-99.240;2024-01-15T08:34:50;77630.47;;;23.25
73673;BMP280;61972;19.480;-99.240;2024-01-15T08:37:18;77632.38;;;23.15
73673;BMP280;61972;19.480;-99.240;2024-01-15T08:39:45;77621.19;;;23.05
73673;BMP280;61972;19.480;-99.240;2024-01-15T08:42:11;77622.69;;;22.97
73673;BMP280;61972;19.480;-99.240;2024-01-15T08:44:37;77618.41;;;22.88
73673;BMP280;61972;19.480;-99.240;2024-01-15T08:47:06;77624.53;;;22.79
73673;BMP280;61972;19.480;-99.240;2024-01-15T08:49:32;77626.03;;;22.71
73673;BMP280;61972;19.480;-99.240;2024-01-15T08:51:58;77618.59;;;22.62
73673;BMP280;61972;19.480;-99.240;2024-01-15T08:54:25;77620.06;;;22.53
73673;BMP280;61972;19.480;-99.240;2024-01-15T08:56:51;77613.75;;;22.45
73673;BMP280;61972;19.480;-99.240;2024-01-15T08:59:17;77618.94;;;22.38
73673;BMP280;61972;19.480;-99.240;2024-01-15T09:01:50;77614.84;;;22.32
73673;BMP280;61972;19.480;-99.240;2024-01-15T09:04:16;77612.78;;;22.25
73673;BMP280;61972;19.480;-99.240;2024-01-15T09:06:46;77615.94;;;22.18
73673;BMP280;61972;19.480;-99.240;2024-01-15T09:09:13;77609.22;;;22.12
73673;BMP280;61972;19.480;-99.240;2024-01-15T09:11:42;77611.81;;;22.05
73673;BMP280;61972;19.480;-99.240;2024-01-15T09:14:08;77610.50;;;22.01
73673;BMP280;61972;19.480;-99.240;2024-01-15T09:16:35;77605.84;;;21.95
73673;BMP280;61972;19.480;-99.240;2024-01-15T09:19:01;77610.66;;;21.90
73673;BMP280;61972;19.480;-99.240;2024-01-15T09:21:29;77612.88;;;21.84
73673;BMP280;61972;19.480;-99.240;2024-01-15T09:23:55;77609.31;;;21.79
73673;BMP280;61972;19.480;-99.240;2024-01-15T09:26:21;77609.50;;;21.74
73673;BMP280;61972;19.480;-99.240;2024-01-15T09:28:47;77608.19;;;21.71
73673;BMP280;61972;19.480;-99.240;2024-01-15T09:31:14;77604.28;;;21.67
73673;BMP280;61972;19.480;-99.240;2024-01-15T09:33:40;77598.13;;;21.61
73673;BMP280;61972;19.480;-99.240;2024-01-15T09:36:06;77602.03;;;21.58
73673;BMP280;61972;19.480;-99.240;2024-01-15T09:38:33;77601.25;;;21.55
73673;BMP280;61972;19.480;-99.240;2024-01-15T09:40:59;77606.06;;;21.50
73673;BMP280;61972;19.480;-99.240;2024-01-15T09:43:25;77603.81;;;21.47
73673;BMP280;61972;19.480;-99.240;2024-01-15T09:45:53;77607.16;;;21.43
73673;BMP280;61972;19.480;-99.240;2024-01-15T09:48:19;77598.59;;;21.40
73673;BMP280;61972;19.480;-99.240;2024-01-15T09:50:46;77605.66;;;21.37
73673;BMP280;61972;19.480;-99.240;2024-01-15T09:53:14;77606.91;;;21.34
73673;BMP280;61972;19.480;-99.240;2024-01-15T09:55:41;77609.31;;;21.31
73673;BMP280;61972;19.480;-99.240;2024-01-15T09:58:07;77608.56;;;21.28
73673;BMP280;61972;19.480;-99.240;2024-01-15T10:00:34;77605.19;;;21.25
73673;BMP280;61972;19.480;-99.240;2024-01-15T10:03:05;77609.63;;;21.22
73673;BMP280;61972;19.480;-99.240;2024-01-15T10:05:32;77603.69;;;21.19
73673;BMP280;61972;19.480;-99.240;2024-01-15T10:08:01;77608.13;;;21.16
73673;BMP280;61972;19.480;-99.240;2024-01-15T10:10:27;77600.13;;;21.13
73673;BMP280;61972;19.480;-99.240;2024-01-15T10:12:54;77607.72;;;21.10
73673;BMP280;61972;19.480;-99.240;2024-01-15T10:15:25;77606.41;;;21.07
73673;BMP280;61972;19.480;-99.240;2024-01-15T10:17:52;77609.34;;;21.05
73673;BMP280;61972;19.480;-99.240;2024-01-15T10:20:18;77612.31;;;21.03
73673;BMP280;61972;19.480;-99.240;2024-01-15T10:22:45;77612.13;;;21.00
73673;BMP280;61972;19.480;-99.240;2024-01-15T10:25:15;77615.66;;;20.99
73673;BMP280;61972;19.480;-99.240;2024-01-15T10:27:45;77619.16;;;20.97
73673;BMP280;61972;19.480;-99.240;2024-01-15T10:30:24;77620.97;;;20.94
73673;BMP280;61972;19.480;-99.240;2024-01-15T10:33:01;77622.84;;;20.91
73673;BMP280;61972;19.480;-99.240;2024-01-15T10:35:30;77620.59;;;20.89
73673;BMP280;61972;19.480;-99.240;2024-01-15T10:37:56;77617.78;;;20.86
73673;BMP280;61972;19.480;-99.240;2024-01-15T10:40:25;77623.91;;;20.85
73673;BMP280;61972;19.480;-99.240;2024-01-15T10:42:52;77624.25;;;20.83
73673;BMP280;61972;19.480;-99.240;2024-01-15T10:45:18;77621.44;;;20.80
73673;BMP280;61972;19.480;-99.240;2024-01-15T10:47:44;77633.31;;;20.79
73673;BMP280;61972;19.480;-99.240;2024-01-15T10:50:12;77618.66;;;20.78
73673;BMP280;61972;19.480;-99.240;2024-01-15T10:52:39;77627.94;;;20.76
73673;BMP280;61972;19.480;-99.240;2024-01-15T10:55:09;77630.28;;;20.74
73673;BMP280;61972;19.480;-99.240;2024-01-15T10:57:39;77626.03;;;20.72
73673;BMP280;61972;19.480;-99.240;2024-01-15T11:00:06;77628.97;;;20.70
73673;BMP280;61972;19.480;-99.240;2024-01-15T11:02:36;77624.16;;;20.68
73673;BMP280;61972;19.480;-99.240;2024-01-15T11:05:03;77629.69;;;20.66
73673;BMP280;61972;19.480;-99.240;2024-01-15T11:07:30;77624.88;;;20.64
73673;BMP280;61972;19.480;-99.240;2024-01-15T11:09:57;77634.13;;;20.63
73673;BMP280;61972;19.480;-99.240;2024-01-15T11:12:26;77630.78;;;20.60
73673;BMP280;61972;19.480;-99.240;2024-01-15T11:15:00;77633.72;;;20.58
73673;BMP280;61972;19.480;-99.240;2024-01-15T11:17:58;77632.38;;;20.54
73673;BMP280;61972;19.480;-99.240;2024-01-15T11:20:31;77635.88;;;20.53
73673;BMP280;61972;19.480;-99.240;2024-01-15T11:22:58;77635.69;;;20.50
73673;BMP280;61972;19.480;-99.240;2024-01-15T11:25:34;77640.31;;;20.50
73673;BMP280;61972;19.480;-99.240;2024-01-15T11:28:04;77639.75;;;20.49
73673;BMP280;61972;19.480;-99.240;2024-01-15T11:30:33;77650.72;;;20.50
73673;BMP280;61972;19.480;-99.240;2024-01-15T11:33:02;77651.06;;;20.48
73673;BMP280;61972;19.480;-99.240;2024-01-15T11:35:48;77650.84;;;20.45
73673;BMP280;61972;19.480;-99.240;2024-01-15T11:38:27;77650.28;;;20.45
73673;BMP280;61972;19.480;-99.240;2024-01-15T11:40:58;77648.03;;;20.43
73673;BMP280;61972;19.480;-99.240;2024-01-15T11:43:28;77659.88;;;20.41
73673;BMP280;61972;19.480;-99.240;2024-01-15T11:45:59;77660.81;;;20.40
73673;BMP280;61972;19.480;-99.240;2024-01-15T11:48:41;77658.03;;;20.37
73673;BMP280;61972;19.480;-99.240;2024-01-15T11:51:11;77662.09;;;20.36
73673;BMP280;61972;19.480;-99.240;2024-01-15T11:53:47;77666.13;;;20.35
73673;BMP280;61972;19.480;-99.240;2024-01-15T11:56:17;77658.72;;;20.33
73673;BMP280;61972;19.480;-99.240;2024-01-15T11:58:44;77667.97;;;20.32
73673;BMP280;61972;19.480;-99.240;2024-01-15T12:01:11;77661.66;;;20.31
73673;BMP280;61972;19.480;-99.240;2024-01-15T12:03:37;77664.59;;;20.29
73673;BMP280;61972;19.480;-99.240;2024-01-15T12:06:07;77659.75;;;20.27
73673;BMP280;61972;19.480;-99.240;2024-01-15T12:08:35;77658.66;;;20.26
73673;BMP280;61972;19.480;-99.240;2024-01-15T12:11:06;77659.00;;;20.24
73673;BMP280;61972;19.480;-99.240;2024-01-15T12:13:39;77652.69;;;20.23
73673;BMP280;61972;19.480;-99.240;2024-01-15T12:16:08;77656.75;;;20.22
73673;BMP280;61972;19.480;-99.240;2024-01-15T12:18:35;77659.72;;;20.20
73673;BMP280;61972;19.480;-99.240;2024-01-15T12:21:03;77666.34;;;20.19
73673;BMP280;61972;19.480;-99.240;2024-01-15T12:23:30;77668.94;;;20.19
73673;BMP280;61972;19.480;-99.240;2024-01-15T12:25:56;77665.59;;;20.16
73673;BMP280;61972;19.480;-99.240;2024-01-15T12:28:22;77667.06;;;20.15
73673;BMP280;61972;19.480;-99.240;2024-01-15T12:30:51;77671.69;;;20.14
73673;BMP280;61972;19.480;-99.240;2024-01-15T12:33:18;77668.53;;;20.14
73673;BMP280;61972;19.480;-99.240;2024-01-15T12:35:53;77676.31;;;20.14
73673;BMP280;61972;19.480;-99.240;2024-01-15T12:38:19;77677.22;;;20.12
73673;BMP280;61972;19.480;-99.240;2024-01-15T12:40:46;77678.16;;;20.11
73673;BMP280;61972;19.480;-99.240;2024-01-15T12:43:12;77668.09;;;20.09
73673;BMP280;61972;19.480;-99.240;2024-01-15T12:45:38;77677.38;;;20.08
73673;BMP280;61972;19.480;-99.240;2024-01-15T12:48:05;77680.88;;;20.06
73673;BMP280;61972;19.480;-99.240;2024-01-15T12:50:33;77690.13;;;20.05
73673;BMP280;61972;19.480;-99.240;2024-01-15T12:53:00;77685.84;;;20.03
73673;BMP280;61972;19.480;-99.240;2024-01-15T12:55:27;77686.75;;;20.02
73673;BMP280;61972;19.480;-99.240;2024-01-15T12:57:57;77684.50;;;20.00
73673;BMP280;61972;19.480;-99.240;2024-01-15T13:00:23;77681.38;;;19.99
73673;BMP280;61972;19.480;-99.240;2024-01-15T13:02:51;77691.16;;;19.99
73673;BMP280;61972;19.480;-99.240;2024-01-15T13:05:17;77689.50;;;19.97
73673;BMP280;61972;19.480;-99.240;2024-01-15T13:07:45;77690.94;;;19.96
73673;BMP280;61972;19.480;-99.240;2024-01-15T13:10:12;77689.28;;;19.95
73673;BMP280;61972;19.480;-99.240;2024-01-15T13:12:40;77699.09;;;19.94
73673;BMP280;61972;19.480;-99.240;2024-01-15T13:15:06;77703.13;;;19.93
73673;BMP280;61972;19.480;-99.240;2024-01-15T13:17:38;77705.53;;;19.91
73673;BMP280;61972;19.480;-99.240;2024-01-15T13:20:06;77710.16;;;19.90
73673;BMP280;61972;19.480;-99.240;2024-01-15T13:22:32;77712.75;;;19.90
73673;BMP280;61972;19.480;-99.240;2024-01-15T13:24:59;77713.06;;;19.88
73673;BMP280;61972;19.480;-99.240;2024-01-15T13:27:25;77709.34;;;19.87
73673;BMP280;61972;19.480;-99.240;2024-01-15T13:29:51;77706.56;;;19.84
73673;BMP280;61972;19.480;-99.240;2024-01-15T13:32:25;77712.66;;;19.83
73673;BMP280;61972;19.480;-99.240;2024-01-15T13:34:52;77719.31;;;19.82
73673;BMP280;61972;19.480;-99.240;2024-01-15T13:37:18;77717.63;;;19.80
73673;BMP280;61972;19.480;-99.240;2024-01-15T13:39:44;77724.84;;;19.80
73673;BMP280;61972;19.480;-99.240;2024-01-15T13:42:10;77716.50;;;19.79
73673;BMP280;61972;19.480;-99.240;2024-01-15T13:44:37;77724.28;;;19.79
73673;BMP280;61972;19.480;-99.240;2024-01-15T13:47:03;77726.09;;;19.76